Bookmark and Share
Track history (hours):
 

Nordstrand

Last reported at 2012-Jul-19 07:33 UTC. Time now 2014-Apr-18 10:38 UTC.
Position N 44°07' E 009°50'.
Warning: this ship's position is years out of date!

Length 206 m; draft 7.8 m.

Type: Ship (hazmat cat A). MMSI: 210575000.

NotesDate/timePositionNaut miles runAvg speedWind from/ knotsBaromVisibWave heightAir tempDewpointWater temp
2012-Jul-19 07:33N 44°07' E 009°50'0 0.0
2012-Jul-19 06:30N 44°07' E 009°50'0 0.0
2012-Jul-19 05:33N 44°07' E 009°50'5 5.8
2012-Jul-19 04:37N 44°02' E 009°54'4 3.8
2012-Jul-19 03:33N 43°58' E 009°54'9 8.8
2012-Jul-19 02:33N 43°52' E 009°45'1010.1
2012-Jul-19 01:33N 43°46' E 009°33'2423.3
2012-Jul-19 00:31N 43°32' E 009°06'8 7.7
2012-Jul-18 23:32N 43°27' E 008°58'2220.7
2012-Jul-18 22:28N 43°14' E 008°33'1716.9
2012-Jul-18 21:26N 43°04' E 008°14'8 9.1
2012-Jul-18 20:33N 42°59' E 008°05'1515.0
2012-Jul-18 19:33N 42°51' E 007°49'1615.7
2012-Jul-18 18:33N 42°41' E 007°32'1715.7
2012-Jul-18 17:29N 42°31' E 007°13'1515.9
2012-Jul-18 16:31N 42°22' E 006°56'1515.2
2012-Jul-18 15:32N 42°13' E 006°40'1616.3
2012-Jul-18 14:33N 42°04' E 006°23'1716.3
2012-Jul-18 13:32N 41°54' E 006°05'1514.6
2012-Jul-18 12:29N 41°45' E 005°48'38615.4
2012-Jul-17 11:25N 37°32' W 000°31'23614.0
2012-Jul-16 18:33N 36°02' W 005°04'1414.2
2012-Jul-16 17:33N 35°58' W 005°21'1313.2
2012-Jul-16 16:32N 35°55' W 005°37'67113.4
2012-Jul-14 14:33N 28°16' W 015°14'1212.3
2012-Jul-14 13:33N 28°07' W 015°24'2 1.5
2012-Jul-14 12:32N 28°08' W 015°25'0 0.0
2012-Jul-14 11:32N 28°08' W 015°25'0 0.0
2012-Jul-14 09:29N 28°08' W 015°25'0 0.0
2012-Jul-14 08:32N 28°08' W 015°25'0 0.0
2012-Jul-14 07:32N 28°08' W 015°25'0 0.0
2012-Jul-14 06:32N 28°08' W 015°25'0 0.0
2012-Jul-14 05:29N 28°08' W 015°25'0 0.0
2012-Jul-14 04:32N 28°08' W 015°25'0 0.0
2012-Jul-14 03:32N 28°08' W 015°25'0 0.0
2012-Jul-14 02:26N 28°08' W 015°25'0 0.0
2012-Jul-14 00:32N 28°08' W 015°25'0 0.0
2012-Jul-13 23:32N 28°08' W 015°25'0 0.0
2012-Jul-13 22:32N 28°08' W 015°25'0 0.0
2012-Jul-13 21:32N 28°08' W 015°25'0 0.0
2012-Jul-13 20:29N 28°08' W 015°25'0 0.0
2012-Jul-13 19:32N 28°08' W 015°25'0 0.0
2012-Jul-13 18:26N 28°08' W 015°25'0 0.0
2012-Jul-13 17:32N 28°08' W 015°25'0 0.0
2012-Jul-13 16:32N 28°08' W 015°25'0 0.0
2012-Jul-13 15:26N 28°08' W 015°25'0 0.0
2012-Jul-13 14:29N 28°08' W 015°25'0 0.0
2012-Jul-13 13:26N 28°08' W 015°25'0 0.0
2012-Jul-13 12:26N 28°08' W 015°25'0 0.0
2012-Jul-13 09:25N 28°08' W 015°25'0 0.0
2012-Jul-13 07:31N 28°08' W 015°25'0 0.1
2012-Jul-13 01:33N 28°08' W 015°25'4 3.9
2012-Jul-13 00:33N 28°11' W 015°22'  

Dump ship's entire track history

sailing weather and tide predictions

Nordstrand — P3NV5 — position and weather